DW2802 Ogijares ES current weather conditions

sailwx.info

Wind from 339 at 0 knots gusting 2

Air temperature 1.7° C
Dewpoint -1.2° C

Last reported at 2017-Jan-24 01:49 UTC.
Time now 2017-Jan-24 03:02 UTC

Location: N 37°07' W 003°36'.
View on Google Maps.

See reports from other nearby stations

  
Tides and Currents Weather Stations Pressure Air Temp Water Temp Dewpoint Dewpoint Depression Visibility Wind Speed Wind Dir Waves Ship Positions
date/time (UTC)wind fromknots sea level pressurealtimeterstation pressurevisibilityair tempwater tempwave heightnotes
2017-Jan-24 01:49 339 0 gusting 2 1.7
2017-Jan-24 01:34 339 1 gusting 3 1.7
2017-Jan-24 01:19 339 1 gusting 3 1.7
2017-Jan-24 01:04 339 2 gusting 3 1.7
2017-Jan-24 00:49 339 2 gusting 4 1.7
2017-Jan-24 00:34 338 2 gusting 4 1.7
2017-Jan-24 00:19 337 2 gusting 4 2.2
2017-Jan-24 00:04 337 2 gusting 3 2.2
2017-Jan-23 23:49 337 0 gusting 2 2.8
2017-Jan-23 23:33 337 2.2
2017-Jan-23 23:18 337 1 gusting 2 2.2
2017-Jan-23 23:03 337 1 gusting 3 2.2
2017-Jan-23 22:48 337 1 gusting 3 2.2
2017-Jan-23 22:33 337 2.2
2017-Jan-23 22:18 337 1 gusting 2 2.8
2017-Jan-23 22:03 335 1 gusting 2 3.3
2017-Jan-23 21:48 335 0 gusting 2 3.3
2017-Jan-23 21:33 335 3.9
2017-Jan-23 21:18 336 1 gusting 3 4.4
2017-Jan-23 21:03 336 1 gusting 3 5.0
2017-Jan-23 20:48 336 0 gusting 3 5.0
2017-Jan-23 20:33 336 5.6
2017-Jan-23 20:18 336 1 gusting 5 5.6
2017-Jan-23 20:03 328 1 gusting 3 6.1
2017-Jan-23 19:48 327 1 gusting 4 6.1
2017-Jan-23 19:33 326 1 gusting 5 6.7
2017-Jan-23 19:18 350 4 gusting 6 7.2
2017-Jan-23 19:03 344 1 gusting 5 7.2
2017-Jan-23 18:48 350 3 gusting 6 7.2
2017-Jan-23 18:33 360 3 gusting 6 7.2
2017-Jan-23 18:18 334 2 gusting 4 7.8
2017-Jan-23 18:03 329 7.8
2017-Jan-23 17:48 329 0 gusting 4 8.3
2017-Jan-23 17:33 328 0 gusting 3 8.9
2017-Jan-23 17:18 328 1 gusting 7 8.9
2017-Jan-23 17:03 329 2 gusting 8 9.4
2017-Jan-23 16:48 325 2 gusting 5 9.4
2017-Jan-23 16:33 329 1 gusting 4 9.4
2017-Jan-23 16:18 338 0 gusting 4 9.4
2017-Jan-23 16:03 017 10.0
2017-Jan-23 15:48 010 4 gusting 7 10.0
2017-Jan-23 15:33 062 1 gusting 5 10.0
2017-Jan-23 15:18 064 1 gusting 4 10.0
2017-Jan-23 15:03 065 9.4
2017-Jan-23 14:48 065 1 gusting 4 9.4
2017-Jan-23 14:33 338 10.0
2017-Jan-23 14:18 338 9.4
2017-Jan-23 14:03 339 9.4
2017-Jan-23 13:48 335 9.4
2017-Jan-23 13:33 309 3 gusting 6 9.4
2017-Jan-23 13:18 291 8.9
2017-Jan-23 13:03 290 7.8
2017-Jan-23 12:48 285 0 gusting 6 7.8
2017-Jan-23 12:33 271 3 gusting 5 7.8
2017-Jan-23 12:18 276 7.2
2017-Jan-23 12:02 279 1 gusting 4 6.1
2017-Jan-23 11:47 306 2 gusting 3 6.1
2017-Jan-23 11:33 306 0 gusting 3 6.1
2017-Jan-23 11:17 306 1 gusting 3 6.1
2017-Jan-23 11:02 306 1 gusting 4 5.6
2017-Jan-23 10:47 306 1 gusting 4 5.0
2017-Jan-23 10:32 304 3 gusting 5 5.0
2017-Jan-23 10:17 296 0 gusting 3 5.6
2017-Jan-23 10:02 296 5.6
2017-Jan-23 09:47 296 5.0
2017-Jan-23 09:32 296 5.0
2017-Jan-23 09:17 296 4.4
2017-Jan-23 09:02 296 3.3
2017-Jan-23 08:47 296 2.8
2017-Jan-23 08:32 296 1.7
2017-Jan-23 08:17 296 -0.0
2017-Jan-23 08:01 296 -0.0
2017-Jan-23 07:47 296 -0.0
2017-Jan-23 07:31 296 -0.0
2017-Jan-23 07:16 296 -0.0
2017-Jan-23 07:01 296 -0.0
2017-Jan-23 06:46 296 -0.0
2017-Jan-23 06:31 296 -0.0
2017-Jan-23 06:16 296 -0.0
2017-Jan-23 06:01 296 -0.0
2017-Jan-23 05:46 296 -0.0
2017-Jan-23 05:31 296 0.6
2017-Jan-23 05:16 296 0.6
2017-Jan-23 05:01 296 0.6
2017-Jan-23 04:46 296 1.1
2017-Jan-23 04:31 296 1.1
2017-Jan-23 04:16 296 1.1
2017-Jan-23 04:01 297 1.1
2017-Jan-23 03:46 297 1.1
2017-Jan-23 03:31 297 1.7
2017-Jan-23 03:16 297 1.7
2017-Jan-23 03:01 297 1.7
2017-Jan-23 02:46 297 1.7
2017-Jan-23 02:31 299 1.7
2017-Jan-23 02:16 299 1.7
2017-Jan-23 02:01 299 2.2
2017-Jan-23 01:46 298 2.2
2017-Jan-23 01:31 299 2.8
2017-Jan-23 01:16 299 2.8
2017-Jan-23 01:01 298 3.3
2017-Jan-23 00:46 298 3.3
2017-Jan-23 00:31 298 3.3
2017-Jan-23 00:16 299 3.3
2017-Jan-23 00:01 299 3.3
2017-Jan-22 23:46 299 2.8
2017-Jan-22 23:31 299 2.8
2017-Jan-22 23:16 298 2.8
2017-Jan-22 23:01 299 3.3
2017-Jan-22 22:46 299 3.3
2017-Jan-22 22:31 299 3.3
2017-Jan-22 22:16 311 2.8
2017-Jan-22 22:01 311 2.8
2017-Jan-22 21:45 312 3.3
2017-Jan-22 21:30 312 3.3
2017-Jan-22 21:16 312 3.9
2017-Jan-22 21:00 312 4.4
2017-Jan-22 20:46 311 5.0
2017-Jan-22 20:31 311 5.0
2017-Jan-22 20:15 311 5.0
2017-Jan-22 20:00 311 5.6
2017-Jan-22 19:45 311 5.6
2017-Jan-22 19:31 311 5.6
2017-Jan-22 19:16 311 6.7
2017-Jan-22 19:00 311 6.7
2017-Jan-22 18:45 311 7.2
2017-Jan-22 18:30 311 7.2
2017-Jan-22 18:15 311 7.8
2017-Jan-22 18:00 311 8.3
2017-Jan-22 17:45 311 8.3
2017-Jan-22 17:30 306 0 gusting 6 8.9
2017-Jan-22 17:15 326 0 gusting 9 9.4
2017-Jan-22 17:01 315 5 gusting 9 10.0
2017-Jan-22 16:45 301 5 gusting 12 10.0
2017-Jan-22 16:30 299 7 gusting 13 10.6
2017-Jan-22 16:15 328 6 gusting 12 10.6
2017-Jan-22 16:00 335 7 gusting 14 10.6
2017-Jan-22 15:45 301 8 gusting 13 10.6
2017-Jan-22 15:30 317 6 gusting 13 10.6
2017-Jan-22 15:15 330 4 gusting 12 10.6
2017-Jan-22 15:00 346 2 gusting 10 10.6
2017-Jan-22 14:45 330 6 gusting 13 10.6
2017-Jan-22 14:30 316 4 gusting 14 10.6
2017-Jan-22 14:15 324 8 gusting 14 10.6
2017-Jan-22 14:00 342 6 gusting 13 10.6
2017-Jan-22 13:45 340 6 gusting 10 10.6
2017-Jan-22 13:30 332 0 gusting 10 10.0
2017-Jan-22 13:15 317 4 gusting 9 10.0
2017-Jan-22 13:00 315 5 gusting 11 9.4
2017-Jan-22 12:45 329 6 gusting 10 9.4
2017-Jan-22 12:30 336 4 gusting 10 9.4
2017-Jan-22 12:15 306 1 gusting 7 8.9
2017-Jan-22 12:00 328 4 gusting 10 8.3
2017-Jan-22 11:45 323 6 gusting 9 7.8
2017-Jan-22 11:30 346 4 gusting 7 7.2
2017-Jan-22 11:15 355 4 gusting 7 7.2
2017-Jan-22 11:00 005 2 gusting 6 6.7
2017-Jan-22 10:45 325 1 gusting 7 5.6
2017-Jan-22 10:30 275 1 gusting 6 5.0
2017-Jan-22 10:15 263 3.9
2017-Jan-22 09:59 237 3.3
2017-Jan-22 09:44 235 2.8
2017-Jan-22 09:29 235 2.2
2017-Jan-22 09:14 234 1.7
2017-Jan-22 08:59 234 1.7
2017-Jan-22 08:44 234 1.7
2017-Jan-22 08:29 235 1.7
2017-Jan-22 08:14 235 1.7
2017-Jan-22 07:59 235 1.1
2017-Jan-22 07:44 235 1.7
2017-Jan-22 07:29 235 1.7
2017-Jan-22 07:14 235 1.7
2017-Jan-22 06:59 235 2.2
2017-Jan-22 06:44 235 2.2
2017-Jan-22 06:30 235 2.2
2017-Jan-22 06:14 235 2.2
2017-Jan-22 05:59 234 2.2
2017-Jan-22 05:44 251 0 gusting 4 2.2
2017-Jan-22 05:29 251 2.8
2017-Jan-22 05:14 251 3.3
2017-Jan-22 04:59 251 3.3
2017-Jan-22 04:44 251 3.9
2017-Jan-22 04:29 251 4.4
2017-Jan-22 04:14 251 4.4
2017-Jan-22 03:59 251 4.4
2017-Jan-22 03:43 251 4.4
2017-Jan-22 03:28 251 5.0
2017-Jan-22 03:13 252 5.0